createdAt,value
2019-01-08T00:00:06.021Z,5.80
2019-01-08T00:01:06.039Z,5.69
2019-01-08T00:02:05.996Z,5.73
2019-01-08T00:03:05.984Z,5.68
2019-01-08T00:04:05.978Z,5.75
2019-01-08T00:05:05.969Z,5.73
2019-01-08T00:06:05.956Z,5.80
2019-01-08T00:07:05.959Z,5.76
2019-01-08T00:08:05.928Z,5.89
2019-01-08T00:09:05.924Z,5.83
2019-01-08T00:10:05.908Z,5.89
2019-01-08T00:11:05.905Z,5.91
2019-01-08T00:12:05.888Z,5.89
2019-01-08T00:13:05.896Z,5.99
2019-01-08T00:14:05.867Z,5.93
2019-01-08T00:15:05.852Z,5.91
2019-01-08T00:16:05.842Z,5.93
2019-01-08T00:17:05.841Z,5.94
2019-01-08T00:18:05.824Z,5.90
2019-01-08T00:19:05.821Z,5.90
2019-01-08T00:20:05.799Z,5.93
2019-01-08T00:21:05.784Z,5.97
2019-01-08T00:22:05.776Z,5.93
2019-01-08T00:23:05.764Z,5.97
2019-01-08T00:24:05.771Z,5.93
2019-01-08T00:25:05.740Z,5.98
2019-01-08T00:26:05.749Z,5.99
2019-01-08T00:27:05.720Z,5.99
2019-01-08T00:28:05.708Z,5.98
2019-01-08T00:29:05.696Z,5.93
2019-01-08T00:30:05.688Z,6.08
2019-01-08T00:31:05.676Z,6.08
2019-01-08T00:32:05.697Z,6.07
2019-01-08T00:33:05.655Z,6.02
2019-01-08T00:34:05.640Z,6.09
2019-01-08T00:35:05.632Z,6.17
2019-01-08T00:36:05.620Z,6.16
2019-01-08T00:37:05.620Z,6.12
2019-01-08T00:38:05.608Z,6.12
2019-01-08T00:39:05.592Z,6.12
2019-01-08T00:40:05.576Z,6.16
2019-01-08T00:41:05.566Z,6.07
2019-01-08T00:42:05.552Z,6.11
2019-01-08T00:43:05.557Z,6.08
2019-01-08T00:44:05.532Z,6.11
2019-01-08T00:45:05.527Z,6.09
2019-01-08T00:46:05.511Z,6.17
2019-01-08T00:47:05.496Z,6.16
2019-01-08T00:48:05.490Z,6.17
2019-01-08T00:49:05.503Z,6.16
2019-01-08T00:50:05.463Z,6.17
2019-01-08T00:51:05.465Z,6.31
2019-01-08T00:52:05.444Z,6.33
2019-01-08T00:53:05.436Z,6.28
2019-01-08T00:54:05.424Z,6.24
2019-01-08T00:55:05.434Z,6.17
2019-01-08T00:56:05.409Z,6.28
2019-01-08T00:57:05.400Z,6.30
2019-01-08T00:58:05.376Z,6.24
2019-01-08T00:59:05.365Z,6.30
2019-01-08T01:00:05.352Z,6.26
2019-01-08T01:01:05.360Z,6.26
2019-01-08T01:02:05.334Z,6.30
2019-01-08T01:03:05.326Z,6.31
2019-01-08T01:04:05.308Z,6.26
2019-01-08T01:05:05.305Z,6.31
2019-01-08T01:06:05.291Z,6.28
2019-01-08T01:07:05.292Z,6.24
2019-01-08T01:08:05.264Z,6.26
2019-01-08T01:09:05.256Z,6.20
2019-01-08T01:10:05.264Z,6.19
2019-01-08T01:11:05.232Z,6.31
2019-01-08T01:12:05.220Z,6.17
2019-01-08T01:13:05.214Z,6.14
2019-01-08T01:14:05.196Z,6.17
2019-01-08T01:15:05.200Z,6.19
2019-01-08T01:16:05.192Z,6.28
2019-01-08T01:17:05.164Z,6.22
2019-01-08T01:18:05.155Z,6.30
2019-01-08T01:19:05.140Z,6.30
2019-01-08T01:20:05.140Z,6.30
2019-01-08T01:21:05.144Z,6.24
2019-01-08T01:22:05.112Z,6.31
2019-01-08T01:23:05.102Z,6.17
2019-01-08T01:24:05.089Z,6.20
2019-01-08T01:25:05.082Z,6.33
2019-01-08T01:26:05.064Z,6.33
2019-01-08T01:27:05.107Z,6.33
2019-01-08T01:28:05.045Z,6.28
2019-01-08T01:29:05.036Z,6.27
2019-01-08T01:30:05.020Z,6.28
2019-01-08T01:31:05.015Z,6.30
2019-01-08T01:32:05.008Z,6.31
2019-01-08T01:33:05.004Z,6.30
2019-01-08T01:34:04.976Z,6.33
2019-01-08T01:35:04.968Z,6.28
2019-01-08T01:36:04.952Z,6.30
2019-01-08T01:37:04.941Z,6.31
2019-01-08T01:38:04.948Z,6.28
2019-01-08T01:39:04.921Z,6.28
2019-01-08T01:40:04.967Z,6.35
2019-01-08T01:41:04.896Z,6.31
2019-01-08T01:42:04.892Z,6.45
2019-01-08T01:43:04.895Z,6.33
2019-01-08T01:44:04.888Z,6.36
2019-01-08T01:45:04.856Z,6.41
2019-01-08T01:46:04.852Z,6.41
2019-01-08T01:47:04.836Z,6.33
2019-01-08T01:48:04.820Z,6.33
2019-01-08T01:49:04.828Z,6.38
2019-01-08T01:50:04.796Z,6.36
2019-01-08T01:51:04.784Z,6.33
2019-01-08T01:52:04.776Z,6.41
2019-01-08T01:53:04.764Z,6.39
2019-01-08T01:54:04.760Z,6.39
2019-01-08T01:55:04.775Z,6.39
2019-01-08T01:56:04.732Z,6.35
2019-01-08T01:57:04.724Z,6.33
2019-01-08T01:58:04.707Z,6.36
2019-01-08T01:59:08.630Z,6.39
2019-01-08T02:00:04.684Z,6.42
2019-01-08T02:01:04.684Z,6.49
2019-01-08T02:02:04.672Z,6.39
2019-01-08T02:03:04.672Z,6.41
2019-01-08T02:04:04.647Z,6.48
2019-01-08T02:05:04.631Z,6.49
2019-01-08T02:06:04.621Z,6.48
2019-01-08T02:07:04.608Z,6.46
2019-01-08T02:08:04.600Z,6.48
2019-01-08T02:09:04.616Z,6.54
2019-01-08T02:10:04.572Z,6.52
2019-01-08T02:11:04.564Z,6.49
2019-01-08T02:12:04.551Z,6.46
2019-01-08T02:13:04.539Z,6.48
2019-01-08T02:14:04.530Z,6.44
2019-01-08T02:15:04.539Z,6.45
2019-01-08T02:16:04.512Z,6.48
2019-01-08T02:17:04.540Z,6.38
2019-01-08T02:18:04.489Z,6.45
2019-01-08T02:19:04.484Z,6.45
2019-01-08T02:20:04.464Z,6.44
2019-01-08T02:21:04.460Z,6.45
2019-01-08T02:22:04.440Z,6.42
2019-01-08T02:23:04.443Z,6.51
2019-01-08T02:24:04.415Z,6.51
2019-01-08T02:25:04.412Z,6.56
2019-01-08T02:26:04.395Z,6.56
2019-01-08T02:27:04.392Z,6.52
2019-01-08T02:28:04.372Z,6.52
2019-01-08T02:29:04.380Z,6.48
2019-01-08T02:30:04.352Z,6.56
2019-01-08T02:31:04.340Z,6.48
2019-01-08T02:32:04.327Z,6.46
2019-01-08T02:33:04.328Z,6.38
2019-01-08T02:34:04.326Z,6.35
2019-01-08T02:35:04.311Z,6.36
2019-01-08T02:36:04.292Z,6.51
2019-01-08T02:37:04.281Z,6.45
2019-01-08T02:38:04.271Z,6.44
2019-01-08T02:39:04.264Z,6.44
2019-01-08T02:40:04.265Z,6.42
2019-01-08T02:41:04.257Z,6.45
2019-01-08T02:42:04.216Z,6.44
2019-01-08T02:43:04.212Z,6.48
2019-01-08T02:44:04.317Z,6.42
2019-01-08T02:45:04.185Z,6.46
2019-01-08T02:46:04.233Z,6.41
2019-01-08T02:47:04.159Z,6.41
2019-01-08T02:48:04.152Z,6.35
2019-01-08T02:49:04.144Z,6.51
2019-01-08T02:50:04.128Z,6.51
2019-01-08T02:51:04.123Z,6.49
2019-01-08T02:52:04.132Z,6.64
2019-01-08T02:53:04.095Z,6.63
2019-01-08T02:54:04.085Z,6.54
2019-01-08T02:55:04.075Z,6.46
2019-01-08T02:56:04.067Z,6.57
2019-01-08T02:57:04.063Z,6.52
2019-01-08T02:58:04.052Z,6.51
2019-01-08T02:59:04.039Z,6.60
2019-01-08T03:00:04.016Z,6.51
2019-01-08T03:01:04.014Z,6.60
2019-01-08T03:02:04.016Z,6.63
2019-01-08T03:03:03.987Z,6.62
2019-01-08T03:04:03.972Z,6.59
2019-01-08T03:05:03.972Z,6.49
2019-01-08T03:06:03.952Z,6.62
2019-01-08T03:07:03.942Z,6.59
2019-01-08T03:08:03.939Z,6.62
2019-01-08T03:09:03.919Z,6.52
2019-01-08T03:10:03.908Z,6.64
2019-01-08T03:11:03.899Z,6.63
2019-01-08T03:12:03.892Z,6.46
2019-01-08T03:13:03.895Z,6.48
2019-01-08T03:14:03.861Z,6.57
2019-01-08T03:15:03.852Z,6.64
2019-01-08T03:16:03.839Z,6.69
2019-01-08T03:17:03.829Z,6.64
2019-01-08T03:18:03.824Z,6.64
2019-01-08T03:19:03.815Z,6.63
2019-01-08T03:20:03.800Z,6.67
2019-01-08T03:21:03.784Z,6.62
2019-01-08T03:22:03.775Z,6.63
2019-01-08T03:23:03.759Z,6.60
2019-01-08T03:24:03.756Z,6.56
2019-01-08T03:25:03.751Z,6.45
2019-01-08T03:26:03.727Z,6.51
2019-01-08T03:27:03.715Z,6.56
2019-01-08T03:28:03.704Z,6.62
2019-01-08T03:29:03.691Z,6.66
2019-01-08T03:30:03.684Z,6.59
2019-01-08T03:31:03.699Z,6.54
2019-01-08T03:32:03.664Z,6.52
2019-01-08T03:33:03.647Z,6.62
2019-01-08T03:34:03.639Z,6.63
2019-01-08T03:35:03.627Z,6.60
2019-01-08T03:36:03.627Z,6.59
2019-01-08T03:37:03.627Z,6.51
2019-01-08T03:38:03.598Z,6.49
2019-01-08T03:39:03.587Z,6.49
2019-01-08T03:40:03.575Z,6.54
2019-01-08T03:41:03.564Z,6.45
2019-01-08T03:42:03.548Z,6.44
2019-01-08T03:43:03.567Z,6.42
2019-01-08T03:44:03.528Z,6.39
2019-01-08T03:45:03.519Z,6.41
2019-01-08T03:46:03.507Z,6.44
2019-01-08T03:47:03.493Z,6.45
2019-01-08T03:48:03.483Z,6.46
2019-01-08T03:49:03.495Z,6.48
2019-01-08T03:50:03.463Z,6.46
2019-01-08T03:51:03.448Z,6.48
2019-01-08T03:52:03.435Z,6.51
2019-01-08T03:53:03.432Z,6.48
2019-01-08T03:54:03.419Z,6.45
2019-01-08T03:55:03.423Z,6.51
2019-01-08T03:56:03.397Z,6.51
2019-01-08T03:57:03.383Z,6.49
2019-01-08T03:58:03.371Z,6.42
2019-01-08T03:59:03.371Z,6.42
2019-01-08T04:00:03.363Z,6.42
2019-01-08T04:01:03.352Z,6.36
2019-01-08T04:02:03.323Z,6.38
2019-01-08T04:03:03.315Z,6.38
2019-01-08T04:04:03.311Z,6.36
2019-01-08T04:05:03.366Z,6.38
2019-01-08T04:06:03.303Z,6.38
2019-01-08T04:07:03.288Z,6.41
2019-01-08T04:08:03.263Z,6.38
2019-01-08T04:09:03.249Z,6.30
2019-01-08T04:10:03.240Z,6.26
2019-01-08T04:11:03.224Z,6.35
2019-01-08T04:12:03.231Z,6.30
2019-01-08T04:13:03.203Z,6.24
2019-01-08T04:14:03.195Z,6.27
2019-01-08T04:15:03.183Z,6.20
2019-01-08T04:16:03.171Z,6.27
2019-01-08T04:17:03.171Z,6.35
2019-01-08T04:18:03.175Z,6.26
2019-01-08T04:19:03.159Z,6.20
2019-01-08T04:20:03.127Z,6.27
2019-01-08T04:21:03.115Z,6.26
2019-01-08T04:22:03.106Z,6.22
2019-01-08T04:23:03.103Z,6.28
2019-01-08T04:24:03.095Z,6.17
2019-01-08T04:25:03.075Z,6.16
2019-01-08T04:26:03.061Z,6.20
2019-01-08T04:27:03.054Z,6.20
2019-01-08T04:28:03.049Z,6.14
2019-01-08T04:29:03.022Z,6.17
2019-01-08T04:30:03.031Z,6.26
2019-01-08T04:31:03.015Z,6.26
2019-01-08T04:32:02.999Z,6.14
2019-01-08T04:33:02.978Z,6.14
2019-01-08T04:34:02.967Z,6.12
2019-01-08T04:35:02.998Z,6.26
2019-01-08T04:36:02.946Z,6.20
2019-01-08T04:37:02.939Z,6.17
2019-01-08T04:38:02.923Z,6.08
2019-01-08T04:39:02.934Z,6.08
2019-01-08T04:40:02.903Z,6.08
2019-01-08T04:41:02.905Z,6.09
2019-01-08T04:42:02.887Z,6.04
2019-01-08T04:43:02.869Z,6.07
2019-01-08T04:44:02.864Z,6.14
2019-01-08T04:45:02.846Z,6.08
2019-01-08T04:46:02.859Z,6.07
2019-01-08T04:47:02.827Z,6.01
2019-01-08T04:48:02.820Z,6.05
2019-01-08T04:49:02.807Z,6.01
2019-01-08T04:50:02.791Z,6.07
2019-01-08T04:51:02.782Z,5.99
2019-01-08T04:52:02.787Z,6.07
2019-01-08T04:53:02.767Z,6.08
2019-01-08T04:54:02.751Z,6.09
2019-01-08T04:55:02.740Z,6.02
2019-01-08T04:56:02.729Z,6.08
2019-01-08T04:57:02.735Z,6.04
2019-01-08T04:58:02.703Z,6.01
2019-01-08T04:59:02.690Z,5.99
2019-01-08T05:00:02.682Z,6.01
2019-01-08T05:01:02.764Z,6.04
2019-01-08T05:02:02.663Z,6.02
2019-01-08T05:03:02.671Z,6.01
2019-01-08T05:04:02.654Z,6.01
2019-01-08T05:05:02.632Z,6.01
2019-01-08T05:06:02.612Z,5.91
2019-01-08T05:07:02.606Z,5.99
2019-01-08T05:08:02.614Z,6.02
2019-01-08T05:09:02.578Z,6.04
2019-01-08T05:10:02.570Z,6.02
2019-01-08T05:11:02.562Z,6.05
2019-01-08T05:12:02.546Z,6.07
2019-01-08T05:13:02.558Z,6.12
2019-01-08T05:14:02.523Z,6.08
2019-01-08T05:15:02.516Z,6.14
2019-01-08T05:16:02.506Z,6.07
2019-01-08T05:17:02.505Z,6.11
2019-01-08T05:18:02.483Z,6.14
2019-01-08T05:19:02.486Z,6.09
2019-01-08T05:20:02.467Z,6.08
2019-01-08T05:21:02.464Z,5.99
2019-01-08T05:22:02.438Z,5.89
2019-01-08T05:23:02.431Z,5.98
2019-01-08T05:24:02.410Z,5.98
2019-01-08T05:25:02.403Z,5.97
2019-01-08T05:26:02.395Z,5.97
2019-01-08T05:27:02.398Z,5.93
2019-01-08T05:28:02.371Z,5.90
2019-01-08T05:29:02.383Z,5.87
2019-01-08T05:30:07.947Z,5.87
2019-01-08T05:31:03.334Z,5.87
2019-01-08T05:32:02.322Z,5.91
2019-01-08T05:33:02.347Z,5.94
2019-01-08T05:34:02.306Z,5.90
2019-01-08T05:35:02.295Z,5.84
2019-01-08T05:36:02.332Z,5.86
2019-01-08T05:37:02.266Z,5.73
2019-01-08T05:38:02.259Z,5.79
2019-01-08T05:39:02.276Z,5.68
2019-01-08T05:40:02.235Z,5.59
2019-01-08T05:41:02.234Z,5.62
2019-01-08T05:42:02.210Z,5.57
2019-01-08T05:43:02.205Z,5.66
2019-01-08T05:44:02.207Z,5.57
2019-01-08T05:45:02.189Z,5.53
2019-01-08T05:46:02.170Z,5.54
2019-01-08T05:47:02.158Z,5.46
2019-01-08T05:48:02.146Z,5.51
2019-01-08T05:49:02.138Z,5.51
2019-01-08T05:50:02.150Z,5.53
2019-01-08T05:51:02.118Z,5.64
2019-01-08T05:52:02.102Z,5.50
2019-01-08T05:53:02.095Z,5.47
2019-01-08T05:54:02.085Z,5.62
2019-01-08T05:55:02.077Z,5.57
2019-01-08T05:56:02.087Z,5.68
2019-01-08T05:57:02.058Z,5.65
2019-01-08T05:58:02.034Z,5.64
2019-01-08T05:59:02.030Z,5.68
2019-01-08T06:00:02.022Z,5.80
2019-01-08T06:01:02.004Z,5.73
2019-01-08T06:02:02.079Z,5.83
2019-01-08T06:03:01.986Z,5.79
2019-01-08T06:04:01.997Z,5.82
2019-01-08T06:05:01.962Z,5.76
2019-01-08T06:06:01.949Z,5.86
2019-01-08T06:07:01.949Z,5.84
2019-01-08T06:08:01.946Z,5.82
2019-01-08T06:09:01.921Z,5.73
2019-01-08T06:10:01.902Z,5.69
2019-01-08T06:11:01.894Z,5.68
2019-01-08T06:12:01.884Z,5.66
2019-01-08T06:13:01.893Z,5.73
2019-01-08T06:14:01.881Z,5.73
2019-01-08T06:15:01.857Z,5.76
2019-01-08T06:16:01.843Z,5.80
2019-01-08T06:17:01.834Z,5.90
2019-01-08T06:18:01.817Z,5.80
2019-01-08T06:19:01.817Z,5.75
2019-01-08T06:20:01.804Z,5.72
2019-01-08T06:21:01.791Z,5.83
2019-01-08T06:22:01.771Z,5.80
2019-01-08T06:23:01.765Z,5.90
2019-01-08T06:24:01.749Z,5.87
2019-01-08T06:25:01.762Z,5.93
2019-01-08T06:26:01.751Z,5.94
2019-01-08T06:27:01.721Z,5.98
2019-01-08T06:28:01.705Z,5.94
2019-01-08T06:29:01.697Z,5.97
2019-01-08T06:30:01.681Z,5.94
2019-01-08T06:31:01.687Z,5.93
2019-01-08T06:32:01.665Z,5.83
2019-01-08T06:33:01.660Z,5.86
2019-01-08T06:34:01.653Z,5.90
2019-01-08T06:35:01.626Z,5.94
2019-01-08T06:36:01.617Z,5.89
2019-01-08T06:37:01.638Z,5.89
2019-01-08T06:38:01.601Z,5.93
2019-01-08T06:39:01.581Z,5.86
2019-01-08T06:40:01.574Z,5.87
2019-01-08T06:41:01.565Z,5.90
2019-01-08T06:42:01.565Z,5.91
2019-01-08T06:43:01.552Z,5.84
2019-01-08T06:44:01.537Z,5.83
2019-01-08T06:45:01.514Z,5.79
2019-01-08T06:46:01.501Z,5.82
2019-01-08T06:47:01.497Z,5.86
2019-01-08T06:48:01.484Z,5.86
2019-01-08T06:49:01.481Z,5.79
2019-01-08T06:50:01.457Z,5.79
2019-01-08T06:51:01.449Z,5.84
2019-01-08T06:52:01.457Z,5.84
2019-01-08T06:53:01.457Z,5.72
2019-01-08T06:54:01.417Z,5.83
2019-01-08T06:55:01.413Z,5.93
2019-01-08T06:56:01.393Z,5.90
2019-01-08T06:57:01.381Z,5.98
2019-01-08T06:58:01.389Z,5.91
2019-01-08T06:59:01.371Z,5.90
2019-01-08T07:00:01.357Z,5.97
2019-01-08T07:01:01.337Z,5.90
2019-01-08T07:02:01.333Z,5.93
2019-01-08T07:03:01.330Z,5.94
2019-01-08T07:04:01.304Z,5.93
2019-01-08T07:05:01.298Z,5.98
2019-01-08T07:06:01.329Z,5.98
2019-01-08T07:07:01.268Z,5.91
2019-01-08T07:08:01.262Z,5.97
2019-01-08T07:09:01.274Z,5.90
2019-01-08T07:10:01.238Z,5.98
2019-01-08T07:11:01.248Z,6.02
2019-01-08T07:12:01.215Z,6.05
2019-01-08T07:13:01.238Z,6.02
2019-01-08T07:14:01.193Z,6.02
2019-01-08T07:15:01.193Z,6.01
2019-01-08T07:16:01.168Z,6.01
2019-01-08T07:17:01.173Z,6.01
2019-01-08T07:18:01.149Z,6.04
2019-01-08T07:19:01.147Z,6.04
2019-01-08T07:20:01.126Z,6.05
2019-01-08T07:21:01.125Z,6.04
2019-01-08T07:22:01.117Z,6.04
2019-01-08T07:23:01.096Z,6.11
2019-01-08T07:24:01.088Z,6.04
2019-01-08T07:25:01.088Z,6.02
2019-01-08T07:26:01.101Z,6.02
2019-01-08T07:27:01.052Z,6.02
2019-01-08T07:28:01.053Z,6.07
2019-01-08T07:29:01.025Z,5.98
2019-01-08T07:30:01.024Z,6.04
2019-01-08T07:31:01.024Z,6.02
2019-01-08T07:32:01.005Z,5.99
2019-01-08T07:33:00.989Z,5.99
2019-01-08T07:34:00.973Z,6.04
2019-01-08T07:35:00.962Z,6.11
2019-01-08T07:36:00.949Z,6.16
2019-01-08T07:37:00.986Z,6.14
2019-01-08T07:38:00.929Z,6.11
2019-01-08T07:39:00.945Z,6.14
2019-01-08T07:40:00.905Z,6.07
2019-01-08T07:41:00.893Z,6.12
2019-01-08T07:42:00.884Z,6.16
2019-01-08T07:43:00.890Z,6.09
2019-01-08T07:44:00.875Z,6.05
2019-01-08T07:45:00.849Z,6.04
2019-01-08T07:46:00.851Z,6.07
2019-01-08T07:47:00.830Z,6.02
2019-01-08T07:48:00.820Z,5.99
2019-01-08T07:49:00.804Z,5.89
2019-01-08T07:50:00.811Z,5.93
2019-01-08T07:51:00.790Z,6.02
2019-01-08T07:52:00.779Z,6.04
2019-01-08T07:53:00.762Z,6.09
2019-01-08T07:54:00.752Z,6.09
2019-01-08T07:55:00.778Z,6.11
2019-01-08T07:56:00.751Z,6.05
2019-01-08T07:57:00.717Z,6.09
2019-01-08T07:58:00.706Z,6.16
2019-01-08T07:59:00.696Z,6.09
2019-01-08T08:00:00.686Z,6.07
2019-01-08T08:01:00.717Z,6.05
2019-01-08T08:02:00.660Z,6.11
2019-01-08T08:03:00.648Z,6.19
2019-01-08T08:04:00.641Z,6.04
2019-01-08T08:05:00.628Z,6.12
2019-01-08T08:06:00.625Z,6.07
2019-01-08T08:07:00.620Z,6.07
2019-01-08T08:08:00.597Z,6.07
2019-01-08T08:09:00.584Z,6.17
2019-01-08T08:10:00.699Z,6.17
2019-01-08T08:11:00.564Z,6.16
2019-01-08T08:12:00.554Z,6.09
2019-01-08T08:13:00.564Z,6.11
2019-01-08T08:14:00.539Z,6.14
2019-01-08T08:15:00.516Z,6.16
2019-01-08T08:16:00.507Z,6.08
2019-01-08T08:17:00.503Z,6.12
2019-01-08T08:18:00.485Z,6.09
2019-01-08T08:19:00.482Z,6.08
2019-01-08T08:20:00.466Z,6.12
2019-01-08T08:21:00.459Z,6.11
2019-01-08T08:22:00.440Z,6.14
2019-01-08T08:23:00.430Z,6.09
2019-01-08T08:24:00.436Z,6.14
2019-01-08T08:25:00.425Z,6.07
2019-01-08T08:26:00.398Z,6.09
2019-01-08T08:27:00.390Z,6.05
2019-01-08T08:28:00.373Z,6.11
2019-01-08T08:29:00.373Z,6.02
2019-01-08T08:30:00.363Z,5.99
2019-01-08T08:31:00.364Z,5.97
2019-01-08T08:32:00.326Z,6.08
2019-01-08T08:33:00.340Z,6.08
2019-01-08T08:34:00.306Z,6.05
2019-01-08T08:35:07.913Z,5.99
2019-01-08T08:36:01.304Z,5.94
2019-01-08T08:37:00.273Z,5.98
2019-01-08T08:38:00.269Z,5.91
2019-01-08T08:39:00.253Z,5.86
2019-01-08T08:40:00.284Z,5.84
2019-01-08T08:41:00.227Z,5.79
2019-01-08T08:42:00.228Z,5.82
2019-01-08T08:43:00.208Z,5.79
2019-01-08T08:44:00.200Z,5.80
2019-01-08T08:45:00.317Z,5.82
2019-01-08T08:46:07.231Z,5.82
2019-01-08T08:47:00.197Z,5.87
2019-01-08T08:48:00.156Z,5.73
2019-01-08T08:49:00.153Z,5.80
2019-01-08T08:50:00.200Z,5.68
2019-01-08T08:51:00.130Z,5.64
2019-01-08T08:52:00.117Z,5.56
2019-01-08T08:53:00.125Z,5.69
2019-01-08T08:54:00.100Z,5.54
2019-01-08T08:55:00.286Z,5.56
2019-01-08T08:56:00.072Z,5.53
2019-01-08T08:57:00.070Z,5.61
2019-01-08T08:58:00.044Z,5.57
2019-01-08T08:59:00.034Z,5.57
2019-01-08T09:00:00.037Z,5.56
2019-01-08T09:01:06.924Z,5.57
2019-01-08T09:02:00.996Z,5.51
2019-01-08T09:03:00.006Z,5.57
2019-01-08T09:03:59.982Z,5.66
2019-01-08T09:04:59.971Z,5.59
2019-01-08T09:05:59.954Z,5.68
2019-01-08T09:06:59.968Z,5.54
2019-01-08T09:07:59.930Z,5.59
2019-01-08T09:08:59.924Z,5.48
2019-01-08T09:09:59.913Z,5.46
2019-01-08T09:10:59.908Z,5.56
2019-01-08T09:11:59.885Z,5.50
2019-01-08T09:12:59.894Z,5.50
2019-01-08T09:13:59.879Z,5.44
2019-01-08T09:14:59.856Z,5.43
2019-01-08T09:15:59.848Z,5.46
2019-01-08T09:16:59.840Z,5.47
2019-01-08T09:17:59.836Z,5.43
2019-01-08T09:18:59.810Z,5.43
2019-01-08T09:19:59.817Z,5.44
2019-01-08T09:20:59.786Z,5.38
2019-01-08T09:21:59.795Z,5.39
2019-01-08T09:22:59.768Z,5.36
2019-01-08T09:23:59.765Z,5.28
2019-01-08T09:24:59.749Z,5.33
2019-01-08T09:25:59.743Z,5.25
2019-01-08T09:26:59.722Z,5.25
2019-01-08T09:27:59.710Z,5.23
2019-01-08T09:28:59.726Z,5.26
2019-01-08T09:29:59.690Z,5.25
2019-01-08T09:30:59.684Z,5.26
2019-01-08T09:31:59.663Z,5.25
2019-01-08T09:32:59.656Z,5.25
2019-01-08T09:33:59.749Z,5.25
2019-01-08T09:34:59.644Z,5.26
2019-01-08T09:35:59.630Z,5.29
2019-01-08T09:36:59.612Z,5.21
2019-01-08T09:37:59.608Z,5.21
2019-01-08T09:38:59.597Z,5.25
2019-01-08T09:39:59.596Z,5.25
2019-01-08T09:40:59.568Z,5.35
2019-01-08T09:41:59.554Z,5.30
2019-01-08T09:42:59.560Z,5.35
2019-01-08T09:43:59.533Z,5.30
2019-01-08T09:44:59.521Z,5.32
2019-01-08T09:45:59.537Z,5.21
2019-01-08T09:46:59.502Z,5.26
2019-01-08T09:47:59.490Z,5.25
2019-01-08T09:48:59.487Z,5.29
2019-01-08T09:49:59.472Z,5.28
2019-01-08T09:50:59.454Z,5.32
2019-01-08T09:51:59.482Z,5.28
2019-01-08T09:52:59.438Z,5.29
2019-01-08T09:53:59.422Z,5.28
2019-01-08T09:54:59.416Z,5.28
2019-01-08T09:55:59.402Z,5.26
2019-01-08T09:56:59.418Z,5.26
2019-01-08T09:57:59.377Z,5.21
2019-01-08T09:58:59.372Z,5.32
2019-01-08T09:59:59.356Z,5.35
2019-01-08T10:00:59.348Z,5.36
2019-01-08T10:01:59.355Z,5.38
2019-01-08T10:02:59.331Z,5.41
2019-01-08T10:03:59.322Z,5.46
2019-01-08T10:04:59.300Z,5.44
2019-01-08T10:05:59.290Z,5.50
2019-01-08T10:06:59.278Z,5.41
2019-01-08T10:07:59.295Z,5.38
2019-01-08T10:08:59.263Z,5.50
2019-01-08T10:09:59.268Z,5.44
2019-01-08T10:10:59.238Z,5.47
2019-01-08T10:11:59.226Z,5.51
2019-01-08T10:12:59.210Z,5.51
2019-01-08T10:13:59.199Z,5.51
2019-01-08T10:14:59.211Z,5.51
2019-01-08T10:15:59.208Z,5.47
2019-01-08T10:16:59.176Z,5.46
2019-01-08T10:17:59.160Z,5.64
2019-01-08T10:18:59.150Z,5.59
2019-01-08T10:19:59.138Z,5.59
2019-01-08T10:20:59.124Z,5.56
2019-01-08T10:21:59.138Z,5.68
2019-01-08T10:22:59.104Z,5.69
2019-01-08T10:23:59.110Z,5.71
2019-01-08T10:24:59.078Z,5.72
2019-01-08T10:25:59.071Z,5.73
2019-01-08T10:26:59.060Z,5.73
2019-01-08T10:27:59.075Z,5.75
2019-01-08T10:28:59.035Z,5.84
2019-01-08T10:29:59.034Z,5.84
2019-01-08T10:30:59.015Z,5.80
2019-01-08T10:31:59.005Z,5.87
2019-01-08T10:32:58.997Z,5.94
2019-01-08T10:33:58.991Z,5.98
2019-01-08T10:34:59.591Z,5.94
2019-01-08T10:35:58.963Z,6.05
2019-01-08T10:36:58.948Z,6.04
2019-01-08T10:37:58.938Z,6.11
2019-01-08T10:38:58.942Z,6.14
2019-01-08T10:39:58.915Z,6.12
2019-01-08T10:40:58.903Z,6.14
2019-01-08T10:41:58.898Z,6.20
2019-01-08T10:42:58.879Z,6.17
2019-01-08T10:43:58.871Z,6.19
2019-01-08T10:44:58.882Z,6.22
2019-01-08T10:45:58.851Z,6.24
2019-01-08T10:46:58.834Z,6.20
2019-01-08T10:47:58.835Z,6.12
2019-01-08T10:48:58.816Z,6.19
2019-01-08T10:49:58.802Z,6.19
2019-01-08T10:50:58.810Z,6.26
2019-01-08T10:51:58.783Z,6.26
2019-01-08T10:52:58.774Z,6.14
2019-01-08T10:53:58.758Z,6.27
2019-01-08T10:54:58.748Z,6.12
2019-01-08T10:55:58.739Z,6.09
2019-01-08T10:56:58.752Z,6.17
2019-01-08T10:57:58.711Z,6.16
2019-01-08T10:58:58.702Z,6.14
2019-01-08T10:59:58.695Z,6.20
2019-01-08T11:00:58.681Z,6.22
2019-01-08T11:01:58.669Z,6.20
2019-01-08T11:02:58.687Z,6.24
2019-01-08T11:03:58.647Z,6.22
2019-01-08T11:04:58.661Z,6.26
2019-01-08T11:05:58.622Z,6.30
2019-01-08T11:06:58.623Z,6.27
2019-01-08T11:07:58.598Z,6.28
2019-01-08T11:08:58.591Z,6.30
2019-01-08T11:09:58.579Z,6.26
2019-01-08T11:10:58.594Z,6.28
2019-01-08T11:11:58.553Z,6.28
2019-01-08T11:12:58.547Z,6.31
2019-01-08T11:13:58.535Z,6.36
2019-01-08T11:14:58.523Z,6.41
2019-01-08T11:15:58.534Z,6.41
2019-01-08T11:16:58.515Z,6.41
2019-01-08T11:17:58.492Z,6.35
2019-01-08T11:18:58.474Z,6.38
2019-01-08T11:19:58.468Z,6.41
2019-01-08T11:20:58.455Z,6.33
2019-01-08T11:21:58.535Z,6.38
2019-01-08T11:22:58.439Z,6.24
2019-01-08T11:23:58.423Z,6.33
2019-01-08T11:24:58.414Z,6.27
2019-01-08T11:25:58.401Z,6.24
2019-01-08T11:26:58.404Z,6.31
2019-01-08T11:27:58.382Z,6.30
2019-01-08T11:28:58.386Z,6.27
2019-01-08T11:29:58.358Z,6.31
2019-01-08T11:30:58.342Z,6.39
2019-01-08T11:31:58.333Z,6.31
2019-01-08T11:32:58.350Z,6.31
2019-01-08T11:33:58.311Z,6.38
2019-01-08T11:34:58.303Z,6.38
2019-01-08T11:35:58.302Z,6.42
2019-01-08T11:36:58.280Z,6.33
2019-01-08T11:37:58.263Z,6.45
2019-01-08T11:38:58.291Z,6.28
2019-01-08T11:39:58.247Z,6.12
2019-01-08T11:40:58.232Z,6.24
2019-01-08T11:41:58.226Z,6.27
2019-01-08T11:42:58.211Z,6.27
2019-01-08T11:43:58.197Z,6.20
2019-01-08T11:44:58.229Z,6.17
2019-01-08T11:45:58.182Z,6.12
2019-01-08T11:46:58.167Z,6.12
2019-01-08T11:48:03.995Z,6.26
2019-01-08T11:48:59.147Z,6.28
2019-01-08T11:49:58.137Z,6.17
2019-01-08T11:50:58.151Z,6.22
2019-01-08T11:51:58.108Z,6.12
2019-01-08T11:52:58.109Z,6.22
2019-01-08T11:53:58.090Z,6.14
2019-01-08T11:54:58.090Z,6.14
2019-01-08T11:55:59.058Z,6.16
2019-01-08T11:56:58.060Z,6.22
2019-01-08T11:57:58.047Z,6.16
2019-01-08T11:58:58.054Z,6.22
2019-01-08T11:59:58.042Z,6.26
2019-01-08T12:00:58.007Z,6.16
2019-01-08T12:01:58.013Z,6.26
2019-01-08T12:02:57.997Z,6.16
2019-01-08T12:03:57.975Z,6.26
2019-01-08T12:04:57.962Z,6.20
2019-01-08T12:05:57.951Z,6.31
2019-01-08T12:06:57.962Z,6.30
2019-01-08T12:07:57.951Z,6.38
2019-01-08T12:08:57.958Z,6.36
2019-01-08T12:09:57.915Z,6.39
2019-01-08T12:10:57.898Z,6.38
2019-01-08T12:11:57.909Z,6.35
2019-01-08T12:12:57.883Z,6.44
2019-01-08T12:13:57.867Z,6.44
2019-01-08T12:14:57.860Z,6.42
2019-01-08T12:15:57.859Z,6.48
2019-01-08T12:16:57.831Z,6.49
2019-01-08T12:17:57.839Z,6.57
2019-01-08T12:18:57.814Z,6.63
2019-01-08T12:19:57.795Z,6.60
2019-01-08T12:20:57.795Z,6.64
2019-01-08T12:21:57.787Z,6.63
2019-01-08T12:22:57.770Z,6.60
2019-01-08T12:23:57.765Z,6.64
2019-01-08T12:24:57.743Z,6.60
2019-01-08T12:25:57.735Z,6.54
2019-01-08T12:26:57.735Z,6.64
2019-01-08T12:27:57.712Z,6.59
2019-01-08T12:28:57.699Z,6.64
2019-01-08T12:29:57.697Z,6.62
2019-01-08T12:30:57.673Z,6.67
2019-01-08T12:32:05.684Z,6.60
2019-01-08T12:32:58.668Z,6.62
2019-01-08T12:33:57.672Z,6.51
2019-01-08T12:34:57.632Z,6.46
2019-01-08T12:35:57.627Z,6.38
2019-01-08T12:36:57.608Z,6.48
2019-01-08T12:37:57.602Z,6.51
2019-01-08T12:38:57.611Z,6.52
2019-01-08T12:39:57.574Z,6.52
2019-01-08T12:40:57.583Z,6.48
2019-01-08T12:41:57.555Z,6.46
2019-01-08T12:42:57.545Z,6.59
2019-01-08T12:43:57.533Z,6.52
2019-01-08T12:44:57.546Z,6.42
2019-01-08T12:45:57.528Z,6.51
2019-01-08T12:46:57.522Z,6.48
2019-01-08T12:47:57.491Z,6.45
2019-01-08T12:48:57.477Z,6.48
2019-01-08T12:49:57.467Z,6.41
2019-01-08T12:50:57.474Z,6.48
2019-01-08T12:51:57.460Z,6.27
2019-01-08T12:52:57.439Z,6.17
2019-01-08T12:53:57.423Z,6.08
2019-01-08T12:54:57.421Z,6.01
2019-01-08T12:55:57.503Z,5.89
2019-01-08T12:56:57.383Z,5.86
2019-01-08T12:57:57.388Z,5.68
2019-01-08T12:58:57.429Z,5.69
2019-01-08T12:59:57.353Z,5.73
2019-01-08T13:00:57.339Z,5.66
2019-01-08T13:01:57.331Z,5.61
2019-01-08T13:02:57.353Z,5.72
2019-01-08T13:03:57.310Z,5.86
2019-01-08T13:04:57.302Z,5.93
2019-01-08T13:05:57.338Z,6.04
2019-01-08T13:06:57.282Z,6.09
2019-01-08T13:07:57.269Z,6.11
2019-01-08T13:08:57.318Z,6.02
2019-01-08T13:09:57.242Z,6.02
2019-01-08T13:10:57.232Z,6.04
2019-01-08T13:11:57.222Z,5.93
2019-01-08T13:12:57.239Z,6.11
2019-01-08T13:13:57.204Z,6.04
2019-01-08T13:14:57.206Z,6.05
2019-01-08T13:15:57.177Z,5.99
2019-01-08T13:16:57.172Z,5.87
2019-01-08T13:17:57.167Z,5.82